createdAt,value
2017-12-01T00:02:14.654Z,96.20
2017-12-01T00:04:42.327Z,96.82
2017-12-01T00:07:09.897Z,97.04
2017-12-01T00:09:37.461Z,96.98
2017-12-01T00:12:05.037Z,96.85
2017-12-01T00:14:32.604Z,96.57
2017-12-01T00:17:00.169Z,96.44
2017-12-01T00:19:28.745Z,95.43
2017-12-01T00:21:56.301Z,95.86
2017-12-01T00:24:23.868Z,96.29
2017-12-01T00:26:52.272Z,96.43
2017-12-01T00:29:20.661Z,97.27
2017-12-01T00:31:49.144Z,96.98
2017-12-01T00:34:17.488Z,96.60
2017-12-01T00:36:45.184Z,95.13
2017-12-01T00:39:12.744Z,94.04
2017-12-01T00:41:40.559Z,94.77
2017-12-01T00:44:09.255Z,95.59
2017-12-01T00:46:37.573Z,96.39
2017-12-01T00:49:05.136Z,94.30
2017-12-01T00:51:32.769Z,93.91
2017-12-01T00:54:01.152Z,93.65
2017-12-01T00:56:28.727Z,95.22
2017-12-01T00:58:57.104Z,95.93
2017-12-01T01:01:25.462Z,95.82
2017-12-01T01:03:53.747Z,95.76
2017-12-01T01:06:21.308Z,95.61
2017-12-01T01:08:49.620Z,95.06
2017-12-01T01:11:17.277Z,93.85
2017-12-01T01:13:44.908Z,93.16
2017-12-01T01:16:12.503Z,92.16
2017-12-01T01:18:40.099Z,93.27
2017-12-01T01:21:07.661Z,93.67
2017-12-01T01:23:35.280Z,93.09
2017-12-01T01:26:03.567Z,92.99
2017-12-01T01:28:31.944Z,91.94
2017-12-01T01:30:59.505Z,93.41
2017-12-01T01:33:27.173Z,94.21
2017-12-01T01:35:55.529Z,93.07
2017-12-01T01:38:23.127Z,94.43
2017-12-01T01:40:50.693Z,93.88
2017-12-01T01:43:18.323Z,93.69
2017-12-01T01:45:45.987Z,92.47
2017-12-01T01:48:13.543Z,92.68
2017-12-01T01:50:41.881Z,93.59
2017-12-01T01:53:10.352Z,92.93
2017-12-01T01:55:38.787Z,93.41
2017-12-01T01:58:07.271Z,92.74
2017-12-01T02:00:34.938Z,92.58
2017-12-01T02:03:02.503Z,91.57
2017-12-01T02:05:30.061Z,92.22
2017-12-01T02:07:58.572Z,91.83
2017-12-01T02:10:26.200Z,91.91
2017-12-01T02:12:54.660Z,92.10
2017-12-01T02:15:22.233Z,92.92
2017-12-01T02:17:49.801Z,93.01
2017-12-01T02:20:17.364Z,91.93
2017-12-01T02:22:45.038Z,93.08
2017-12-01T02:25:12.606Z,91.77
2017-12-01T02:27:40.260Z,92.38
2017-12-01T02:30:07.921Z,93.22
2017-12-01T02:32:35.493Z,94.10
2017-12-01T02:35:03.064Z,93.35
2017-12-01T02:37:30.670Z,92.54
2017-12-01T02:39:58.265Z,91.67
2017-12-01T02:42:25.819Z,93.08
2017-12-01T02:44:53.484Z,92.12
2017-12-01T02:47:21.045Z,93.00
2017-12-01T02:49:48.607Z,92.52
2017-12-01T02:52:16.268Z,92.98
2017-12-01T02:54:48.498Z,92.15
2017-12-01T02:57:16.060Z,93.79
2017-12-01T02:59:44.336Z,92.22
2017-12-01T03:02:11.905Z,93.22
2017-12-01T03:04:40.397Z,93.32
2017-12-01T03:07:07.977Z,92.87
2017-12-01T03:09:35.544Z,92.37
2017-12-01T03:12:03.100Z,92.35
2017-12-01T03:14:30.656Z,92.01
2017-12-01T03:16:58.265Z,93.38
2017-12-01T03:19:25.827Z,93.91
2017-12-01T03:21:53.441Z,95.02
2017-12-01T03:24:20.999Z,94.12
2017-12-01T03:26:48.618Z,95.25
2017-12-01T03:29:17.053Z,95.59
2017-12-01T03:31:44.711Z,94.52
2017-12-01T03:34:12.312Z,93.94
2017-12-01T03:36:39.884Z,94.01
2017-12-01T03:39:07.498Z,93.66
2017-12-01T03:41:35.842Z,93.88
2017-12-01T03:44:03.601Z,93.32
2017-12-01T03:46:31.214Z,93.84
2017-12-01T03:48:59.619Z,93.89
2017-12-01T03:51:28.073Z,93.77
2017-12-01T03:53:56.341Z,94.46
2017-12-01T03:56:24.820Z,94.06
2017-12-01T03:58:53.244Z,94.14
2017-12-01T04:01:21.764Z,94.46
2017-12-01T04:03:50.211Z,94.17
2017-12-01T04:06:18.749Z,94.18
2017-12-01T04:08:46.422Z,94.84
2017-12-01T04:11:14.022Z,95.43
2017-12-01T04:13:42.360Z,94.31
2017-12-01T04:16:10.730Z,94.28
2017-12-01T04:18:39.066Z,93.79
2017-12-01T04:21:07.417Z,94.32
2017-12-01T04:23:35.882Z,94.35
2017-12-01T04:26:04.237Z,94.84
2017-12-01T04:28:32.588Z,93.53
2017-12-01T04:31:00.911Z,93.36
2017-12-01T04:33:29.240Z,92.93
2017-12-01T04:35:57.635Z,92.59
2017-12-01T04:38:25.239Z,93.85
2017-12-01T04:40:52.808Z,92.81
2017-12-01T04:43:21.276Z,93.25
2017-12-01T04:45:48.920Z,93.06
2017-12-01T04:48:17.430Z,92.83
2017-12-01T04:50:45.789Z,92.89
2017-12-01T04:53:14.129Z,92.66
2017-12-01T04:55:42.114Z,92.61
2017-12-01T04:58:09.677Z,92.97
2017-12-01T05:00:37.272Z,92.47
2017-12-01T05:03:05.760Z,92.72
2017-12-01T05:05:34.055Z,92.69
2017-12-01T05:08:02.310Z,93.46
2017-12-01T05:10:29.871Z,93.47
2017-12-01T05:12:57.430Z,92.83
2017-12-01T05:15:24.992Z,92.57
2017-12-01T05:17:52.561Z,92.78
2017-12-01T05:20:20.132Z,93.19
2017-12-01T05:22:48.704Z,92.66
2017-12-01T05:25:17.175Z,92.97
2017-12-01T05:27:44.740Z,92.95
2017-12-01T05:30:12.308Z,92.63
2017-12-01T05:32:40.809Z,92.32
2017-12-01T05:35:09.144Z,92.11
2017-12-01T05:37:36.708Z,92.39
2017-12-01T05:40:05.301Z,92.33
2017-12-01T05:42:32.852Z,92.90
2017-12-01T05:45:01.316Z,91.98
2017-12-01T05:47:29.585Z,92.15
2017-12-01T05:49:57.965Z,91.80
2017-12-01T05:52:26.317Z,92.71
2017-12-01T05:54:54.659Z,92.19
2017-12-01T05:57:23.150Z,91.85
2017-12-01T05:59:50.724Z,92.39
2017-12-01T06:02:19.140Z,91.85
2017-12-01T06:04:46.712Z,91.96
2017-12-01T06:07:16.225Z,91.60
2017-12-01T06:09:44.568Z,91.75
2017-12-01T06:12:12.855Z,92.15
2017-12-01T06:14:41.128Z,92.26
2017-12-01T06:17:09.477Z,92.76
2017-12-01T06:19:37.050Z,93.17
2017-12-01T06:22:05.431Z,93.43
2017-12-01T06:24:33.886Z,94.11
2017-12-01T06:27:02.317Z,93.29
2017-12-01T06:29:30.653Z,93.03
2017-12-01T06:31:58.992Z,94.75
2017-12-01T06:34:26.583Z,94.71
2017-12-01T06:36:55.053Z,94.90
2017-12-01T06:39:23.325Z,94.48
2017-12-01T06:41:50.900Z,93.66
2017-12-01T06:44:18.537Z,93.27
2017-12-01T06:46:46.919Z,93.29
2017-12-01T06:49:15.342Z,93.26
2017-12-01T06:51:43.685Z,93.30
2017-12-01T06:54:12.029Z,93.32
2017-12-01T06:56:39.592Z,93.73
2017-12-01T06:59:07.938Z,93.45
2017-12-01T07:01:36.323Z,93.40
2017-12-01T07:04:04.672Z,93.38
2017-12-01T07:06:32.245Z,94.67
2017-12-01T07:09:00.708Z,93.92
2017-12-01T07:11:28.305Z,94.24
2017-12-01T07:13:55.969Z,94.45
2017-12-01T07:16:23.619Z,93.86
2017-12-01T07:18:52.100Z,94.22
2017-12-01T07:21:19.659Z,93.62
2017-12-01T07:23:47.320Z,94.71
2017-12-01T07:26:26.888Z,94.67
2017-12-01T07:28:54.598Z,94.74
2017-12-01T07:31:22.973Z,93.46
2017-12-01T07:33:50.545Z,92.96
2017-12-01T07:36:18.152Z,93.53
2017-12-01T07:38:45.764Z,93.86
2017-12-01T07:41:13.372Z,92.88
2017-12-01T07:43:41.752Z,92.86
2017-12-01T07:46:10.275Z,93.00
2017-12-01T07:48:37.831Z,92.78
2017-12-01T07:51:05.402Z,93.68
2017-12-01T07:53:32.966Z,93.58
2017-12-01T07:56:00.528Z,92.67
2017-12-01T07:58:28.084Z,93.45
2017-12-01T08:00:55.659Z,93.87
2017-12-01T08:03:23.227Z,94.08
2017-12-01T08:05:50.784Z,93.88
2017-12-01T08:08:18.367Z,93.36
2017-12-01T08:10:45.928Z,94.24
2017-12-01T08:13:13.489Z,93.61
2017-12-01T08:15:53.031Z,93.89
2017-12-01T08:21:43.796Z,93.33
2017-12-01T08:24:23.913Z,93.25
2017-12-01T08:26:52.264Z,93.07
2017-12-01T08:29:20.632Z,92.80
2017-12-01T08:31:48.236Z,92.90
2017-12-01T08:34:16.508Z,92.85
2017-12-01T08:36:44.661Z,92.94
2017-12-01T08:39:12.244Z,92.90
2017-12-01T08:41:39.806Z,93.28
2017-12-01T08:44:08.272Z,93.04
2017-12-01T08:46:35.944Z,92.22
2017-12-01T08:49:04.597Z,91.73
2017-12-01T08:51:32.262Z,92.12
2017-12-01T08:54:01.985Z,91.28
2017-12-01T08:56:29.637Z,90.58
2017-12-01T08:58:57.193Z,90.74
2017-12-01T09:01:24.766Z,91.65
2017-12-01T09:03:52.355Z,90.56
2017-12-01T09:06:19.929Z,91.68
2017-12-01T09:08:47.491Z,91.57
2017-12-01T09:11:15.053Z,91.55
2017-12-01T09:13:42.616Z,91.10
2017-12-01T09:16:10.176Z,89.74
2017-12-01T09:18:37.736Z,89.05
2017-12-01T09:21:05.300Z,89.18
2017-12-01T09:23:32.944Z,89.30
2017-12-01T09:26:00.545Z,88.76
2017-12-01T09:28:28.100Z,89.79
2017-12-01T09:30:55.714Z,90.73
2017-12-01T09:33:23.383Z,90.23
2017-12-01T09:35:58.243Z,89.59
2017-12-01T09:38:25.802Z,89.31
2017-12-01T09:40:53.436Z,90.38
2017-12-01T09:43:20.997Z,90.22
2017-12-01T09:45:48.657Z,90.64
2017-12-01T09:48:16.324Z,89.52
2017-12-01T09:50:43.885Z,89.36
2017-12-01T09:53:11.445Z,89.33
2017-12-01T09:55:39.068Z,89.02
2017-12-01T09:58:06.623Z,88.35
2017-12-01T10:00:34.189Z,88.73
2017-12-01T10:03:01.778Z,88.67
2017-12-01T10:05:29.408Z,89.26
2017-12-01T10:07:57.012Z,88.25
2017-12-01T10:10:24.582Z,88.56
2017-12-01T10:12:52.182Z,88.96
2017-12-01T10:15:19.869Z,88.45
2017-12-01T10:17:47.453Z,90.11
2017-12-01T10:20:15.228Z,88.26
2017-12-01T10:22:44.045Z,88.79
2017-12-01T10:25:11.728Z,89.08
2017-12-01T10:27:39.410Z,89.07
2017-12-01T10:30:06.984Z,89.11
2017-12-01T10:32:34.604Z,90.35
2017-12-01T10:35:02.280Z,90.01
2017-12-01T10:37:29.924Z,89.14
2017-12-01T10:39:57.620Z,88.26
2017-12-01T10:42:25.183Z,88.55
2017-12-01T10:44:52.791Z,90.68
2017-12-01T10:47:20.351Z,90.60
2017-12-01T10:49:47.914Z,89.03
2017-12-01T10:52:15.494Z,88.15
2017-12-01T10:54:43.047Z,88.71
2017-12-01T10:57:10.610Z,87.77
2017-12-01T10:59:38.191Z,88.34
2017-12-01T11:02:05.789Z,88.29
2017-12-01T11:04:33.407Z,86.98
2017-12-01T11:07:01.096Z,87.08
2017-12-01T11:09:28.656Z,87.64
2017-12-01T11:11:56.217Z,87.97
2017-12-01T11:14:23.812Z,88.37
2017-12-01T11:16:51.472Z,88.55
2017-12-01T11:19:19.108Z,87.79
2017-12-01T11:21:47.592Z,87.23
2017-12-01T11:24:15.968Z,88.05
2017-12-01T11:26:44.433Z,87.84
2017-12-01T11:29:11.997Z,88.54
2017-12-01T11:31:39.566Z,86.98
2017-12-01T11:34:07.129Z,87.41
2017-12-01T11:36:34.725Z,86.77
2017-12-01T11:39:02.293Z,87.32
2017-12-01T11:41:29.948Z,85.75
2017-12-01T11:43:57.612Z,88.32
2017-12-01T11:46:25.177Z,88.10
2017-12-01T11:48:53.516Z,86.83
2017-12-01T11:51:21.932Z,87.00
2017-12-01T11:53:49.532Z,86.10
2017-12-01T11:56:17.148Z,85.13
2017-12-01T11:58:44.816Z,85.52
2017-12-01T12:01:12.388Z,86.52
2017-12-01T12:03:40.017Z,85.96
2017-12-01T12:06:07.708Z,87.56
2017-12-01T12:08:35.306Z,86.25
2017-12-01T12:11:02.900Z,87.17
2017-12-01T12:13:30.457Z,86.28
2017-12-01T12:15:58.016Z,87.64
2017-12-01T12:18:25.590Z,86.34
2017-12-01T12:20:53.169Z,86.32
2017-12-01T12:23:22.018Z,86.57
2017-12-01T12:25:49.624Z,85.85
2017-12-01T12:28:17.188Z,86.66
2017-12-01T12:30:44.784Z,86.28
2017-12-01T12:33:12.344Z,86.69
2017-12-01T12:35:41.012Z,85.67
2017-12-01T12:38:08.565Z,86.56
2017-12-01T12:40:36.200Z,86.54
2017-12-01T12:43:03.805Z,87.29
2017-12-01T12:45:31.372Z,87.77
2017-12-01T12:47:58.923Z,88.19
2017-12-01T12:50:26.559Z,88.26
2017-12-01T12:52:55.030Z,88.17
2017-12-01T12:55:22.701Z,88.35
2017-12-01T12:57:50.263Z,88.41
2017-12-01T13:00:17.864Z,88.42
2017-12-01T13:02:45.486Z,88.18
2017-12-01T13:05:13.049Z,87.53
2017-12-01T13:07:40.607Z,88.64
2017-12-01T13:10:08.273Z,88.91
2017-12-01T13:12:35.838Z,87.59
2017-12-01T13:15:03.393Z,88.65
2017-12-01T13:17:31.796Z,87.31
2017-12-01T13:19:59.353Z,86.23
2017-12-01T13:22:26.910Z,86.85
2017-12-01T13:24:54.472Z,87.18
2017-12-01T13:27:22.039Z,87.55
2017-12-01T13:29:49.674Z,86.92
2017-12-01T13:32:17.244Z,86.64
2017-12-01T13:34:45.821Z,86.34
2017-12-01T13:37:13.384Z,87.85
2017-12-01T13:39:41.860Z,86.65
2017-12-01T13:42:09.533Z,87.46
2017-12-01T13:44:37.095Z,87.92
2017-12-01T13:47:04.752Z,86.93
2017-12-01T13:49:33.273Z,86.74
2017-12-01T13:52:00.938Z,85.87
2017-12-01T13:54:28.504Z,85.69
2017-12-01T13:56:56.120Z,87.24
2017-12-01T13:59:23.681Z,87.25
2017-12-01T14:01:51.273Z,87.43
2017-12-01T14:04:18.832Z,88.20
2017-12-01T14:06:46.405Z,88.35
2017-12-01T14:09:13.964Z,87.85
2017-12-01T14:11:41.524Z,88.34
2017-12-01T14:14:09.086Z,88.18
2017-12-01T14:16:36.652Z,87.48
2017-12-01T14:19:04.217Z,87.12
2017-12-01T14:21:32.473Z,87.07
2017-12-01T14:24:00.824Z,86.35
2017-12-01T14:26:29.309Z,87.31
2017-12-01T14:28:56.971Z,87.07
2017-12-01T14:31:28.625Z,87.68
2017-12-01T14:33:56.190Z,86.81
2017-12-01T14:36:24.664Z,87.09
2017-12-01T14:38:53.073Z,87.43
2017-12-01T14:41:21.403Z,88.30
2017-12-01T14:43:49.005Z,87.50
2017-12-01T14:46:17.469Z,87.72
2017-12-01T14:48:45.027Z,88.31
2017-12-01T14:51:12.594Z,88.29
2017-12-01T14:53:40.162Z,89.33
2017-12-01T14:56:08.732Z,89.24
2017-12-01T14:58:37.184Z,89.85
2017-12-01T15:01:05.598Z,89.30
2017-12-01T15:03:34.064Z,89.78
2017-12-01T15:06:01.649Z,90.07
2017-12-01T15:08:29.212Z,90.06
2017-12-01T15:10:56.773Z,90.79
2017-12-01T15:13:24.424Z,91.46
2017-12-01T15:15:53.111Z,91.12
2017-12-01T15:18:20.672Z,91.10
2017-12-01T15:23:41.053Z,91.64
2017-12-01T15:26:08.652Z,91.23
2017-12-01T15:28:36.753Z,91.82
2017-12-01T15:31:04.320Z,91.51
2017-12-01T15:33:31.876Z,91.67
2017-12-01T15:35:59.434Z,91.59
2017-12-01T15:38:27.004Z,92.13
2017-12-01T15:40:54.577Z,91.64
2017-12-01T15:43:23.030Z,92.02
2017-12-01T15:45:50.589Z,91.76
2017-12-01T15:48:19.052Z,91.81
2017-12-01T15:50:47.403Z,91.93
2017-12-01T15:53:14.971Z,91.92
2017-12-01T15:55:42.532Z,91.78
2017-12-01T15:58:10.090Z,91.98
2017-12-01T16:00:37.696Z,91.43
2017-12-01T16:03:05.260Z,91.57
2017-12-01T16:05:33.599Z,91.67
2017-12-01T16:08:02.083Z,91.63
2017-12-01T16:10:30.443Z,91.21
2017-12-01T16:12:58.006Z,90.68
2017-12-01T16:15:25.608Z,91.23
2017-12-01T16:17:53.172Z,91.90
2017-12-01T16:20:20.828Z,91.24
2017-12-01T16:22:48.408Z,91.13
2017-12-01T16:25:16.043Z,92.00
2017-12-01T16:27:43.599Z,91.80
2017-12-01T16:30:11.175Z,91.19
2017-12-01T16:32:42.382Z,91.19
2017-12-01T16:35:06.359Z,92.67
2017-12-01T16:37:33.927Z,92.27
2017-12-01T16:40:01.571Z,91.33
2017-12-01T16:42:29.831Z,90.79
2017-12-01T16:44:57.466Z,91.08
2017-12-01T16:47:25.104Z,90.76
2017-12-01T16:49:53.605Z,91.47
2017-12-01T16:52:21.260Z,91.50
2017-12-01T16:54:48.921Z,91.30
2017-12-01T16:57:16.476Z,90.87
2017-12-01T16:59:44.084Z,90.95
2017-12-01T17:02:11.708Z,91.38
2017-12-01T17:04:39.441Z,91.70
2017-12-01T17:07:07.040Z,91.22
2017-12-01T17:09:34.598Z,91.72
2017-12-01T17:12:02.167Z,91.15
2017-12-01T17:14:29.732Z,91.00
2017-12-01T17:16:57.386Z,90.40
2017-12-01T17:19:24.960Z,91.80
2017-12-01T17:21:52.552Z,90.94
2017-12-01T17:24:20.992Z,91.46
2017-12-01T17:26:48.600Z,91.77
2017-12-01T17:29:16.275Z,92.13
2017-12-01T17:31:43.946Z,91.59
2017-12-01T17:34:11.583Z,92.36
2017-12-01T17:36:40.111Z,92.36
2017-12-01T17:39:07.668Z,91.70
2017-12-01T17:41:35.612Z,92.29
2017-12-01T17:44:03.175Z,92.33
2017-12-01T17:46:31.543Z,92.39
2017-12-01T17:49:00.008Z,92.07
2017-12-01T17:51:27.565Z,91.98
2017-12-01T17:53:56.116Z,92.23
2017-12-01T17:56:24.503Z,92.23
2017-12-01T17:58:52.063Z,92.73
2017-12-01T18:01:19.728Z,92.54
2017-12-01T18:03:48.119Z,92.70
2017-12-01T18:06:15.676Z,92.82
2017-12-01T18:08:43.231Z,91.99
2017-12-01T18:11:10.884Z,91.82
2017-12-01T18:13:38.459Z,92.31
2017-12-01T18:16:06.021Z,92.09
2017-12-01T18:18:33.973Z,92.38
2017-12-01T18:21:01.532Z,93.11
2017-12-01T18:23:29.820Z,93.04
2017-12-01T18:25:58.117Z,93.26
2017-12-01T18:28:26.577Z,94.05
2017-12-01T18:30:55.057Z,93.97
2017-12-01T18:33:23.333Z,94.13
2017-12-01T18:35:52.094Z,94.39
2017-12-01T18:38:19.789Z,94.25
2017-12-01T18:40:48.372Z,93.30
2017-12-01T18:43:15.945Z,93.00
2017-12-01T18:45:44.483Z,92.72
2017-12-01T18:48:12.836Z,92.86
2017-12-01T18:50:41.211Z,92.40
2017-12-01T18:53:08.806Z,92.70
2017-12-01T18:55:36.364Z,92.87
2017-12-01T18:58:04.875Z,92.55
2017-12-01T19:00:32.447Z,93.04
2017-12-01T19:03:00.823Z,93.13
2017-12-01T19:05:37.164Z,94.33
2017-12-01T19:08:05.681Z,93.75
2017-12-01T19:10:33.986Z,94.01
2017-12-01T19:13:01.547Z,93.89
2017-12-01T19:15:29.220Z,94.04
2017-12-01T19:17:56.776Z,94.38
2017-12-01T19:20:24.349Z,93.98
2017-12-01T19:22:51.907Z,92.90
2017-12-01T19:25:20.184Z,92.94
2017-12-01T19:27:48.515Z,92.73
2017-12-01T19:30:16.081Z,92.70
2017-12-01T19:32:43.643Z,93.57
2017-12-01T19:35:11.208Z,93.91
2017-12-01T19:37:38.764Z,93.34
2017-12-01T19:40:06.324Z,93.40
2017-12-01T19:42:34.015Z,93.11
2017-12-01T19:45:01.585Z,93.33
2017-12-01T19:47:29.241Z,93.65
2017-12-01T19:49:56.947Z,93.38
2017-12-01T19:52:25.288Z,93.67
2017-12-01T19:54:53.664Z,94.67
2017-12-01T19:57:21.256Z,94.12
2017-12-01T19:59:48.883Z,93.94
2017-12-01T20:02:16.445Z,93.41
2017-12-01T20:04:44.112Z,93.36
2017-12-01T20:07:12.566Z,94.28
2017-12-01T20:09:40.156Z,94.52
2017-12-01T20:12:07.818Z,93.60
2017-12-01T20:14:35.424Z,94.05
2017-12-01T20:17:03.050Z,93.80
2017-12-01T20:19:30.704Z,93.89
2017-12-01T20:21:58.364Z,94.47
2017-12-01T20:24:25.932Z,94.32
2017-12-01T20:26:54.180Z,94.60
2017-12-01T20:29:21.833Z,94.94
2017-12-01T20:31:49.448Z,94.38
2017-12-01T20:34:17.024Z,93.77
2017-12-01T20:36:44.580Z,93.91
2017-12-01T20:39:12.140Z,93.88
2017-12-01T20:41:39.748Z,94.18
2017-12-01T20:44:07.305Z,94.49
2017-12-01T20:46:35.024Z,93.42
2017-12-01T20:49:03.165Z,94.13
2017-12-01T20:51:31.620Z,93.52
2017-12-01T20:54:00.437Z,94.09
2017-12-01T20:56:28.685Z,94.23
2017-12-01T20:58:56.604Z,93.66
2017-12-01T21:01:24.165Z,94.14
2017-12-01T21:03:51.771Z,94.82
2017-12-01T21:06:20.296Z,95.07
2017-12-01T21:08:48.656Z,95.33
2017-12-01T21:11:17.097Z,94.49
2017-12-01T21:13:44.689Z,94.13
2017-12-01T21:16:12.279Z,93.84
2017-12-01T21:18:40.856Z,94.54
2017-12-01T21:21:08.416Z,94.82
2017-12-01T21:23:36.008Z,94.07
2017-12-01T21:26:03.711Z,94.02
2017-12-01T21:28:31.300Z,93.74
2017-12-01T21:30:58.891Z,93.20
2017-12-01T21:33:26.443Z,93.68
2017-12-01T21:35:54.089Z,94.06
2017-12-01T21:38:21.652Z,93.83
2017-12-01T21:40:49.211Z,93.62
2017-12-01T21:43:16.872Z,93.66
2017-12-01T21:45:44.462Z,94.29
2017-12-01T21:48:12.016Z,94.72
2017-12-01T21:50:40.292Z,94.92
2017-12-01T21:53:07.856Z,93.65
2017-12-01T21:55:35.446Z,93.82
2017-12-01T21:58:03.036Z,94.41
2017-12-01T22:00:30.621Z,94.70
2017-12-01T22:02:59.005Z,95.05
2017-12-01T22:05:27.415Z,96.03
2017-12-01T22:07:54.980Z,95.19
2017-12-01T22:10:22.535Z,93.92
2017-12-01T22:12:50.168Z,94.23
2017-12-01T22:15:17.761Z,94.31
2017-12-01T22:17:45.323Z,94.59
2017-12-01T22:20:12.928Z,94.39
2017-12-01T22:22:40.508Z,95.44
2017-12-01T22:25:08.078Z,94.47
2017-12-01T22:27:35.640Z,94.13
2017-12-01T22:30:03.200Z,93.81
2017-12-01T22:32:30.764Z,93.29
2017-12-01T22:34:58.320Z,93.16
2017-12-01T22:37:25.893Z,92.99
2017-12-01T22:39:53.451Z,93.10
2017-12-01T22:42:21.091Z,93.19
2017-12-01T22:44:49.355Z,92.94
2017-12-01T22:47:17.474Z,92.95
2017-12-01T22:49:45.082Z,92.64
2017-12-01T22:52:12.624Z,93.08
2017-12-01T22:54:40.183Z,94.82
2017-12-01T22:57:07.749Z,94.18
2017-12-01T22:59:35.304Z,94.36
2017-12-01T23:02:03.923Z,93.95
2017-12-01T23:04:32.285Z,94.01
2017-12-01T23:07:00.624Z,93.02
2017-12-01T23:09:28.185Z,93.41
2017-12-01T23:11:55.743Z,93.46
2017-12-01T23:14:23.368Z,93.15
2017-12-01T23:16:50.923Z,93.31
2017-12-01T23:19:19.440Z,93.41
2017-12-01T23:21:47.896Z,92.99
2017-12-01T23:24:15.464Z,93.44
2017-12-01T23:26:43.119Z,93.45
2017-12-01T23:29:10.688Z,93.66
2017-12-01T23:31:38.345Z,93.51
2017-12-01T23:34:05.905Z,93.33
2017-12-01T23:36:34.958Z,93.66
2017-12-01T23:39:02.527Z,93.38
2017-12-01T23:41:30.124Z,93.43
2017-12-01T23:43:57.752Z,92.96
2017-12-01T23:46:25.343Z,94.43
2017-12-01T23:48:53.016Z,94.97
2017-12-01T23:51:20.627Z,94.94
2017-12-01T23:53:48.888Z,94.74
2017-12-01T23:56:16.449Z,95.12
2017-12-01T23:58:44.108Z,93.97
